Terminal Aerodrome Forecast
Issued by NWS Wilmington, OH

Current Version | Previous Version | Graphics & Text | Print | Product List | Glossary On
Versions: 1 2 3 4 5 6 7 8 9 10 11 12 13 14 15 16 17
443
FTUS41 KILN 280528
TAFDAY
TAF
KDAY 280528Z 2806/2906 29007KT P6SM FEW250
     FM281300 13008KT P6SM BKN200
     FM282000 15009KT P6SM VCSH BKN150
     FM290000 12009KT P6SM OVC060
     FM290400 15009KT 3SM -SHRA OVC020 WS020/21045KT=

USA.gov is the U.S. government's official web portal to all federal, state and local government web resources and services.